sensor_id;sensor_type;location;lat;lon;timestamp;pressure;altitude;pressure_sealevel;temperature;humidity
46129;BME280;31860;45.186;5.790;2023-02-24T00:01:12;98655.06;;;13.50;100.00
46129;BME280;31860;45.186;5.790;2023-02-24T00:03:39;98656.81;;;13.49;100.00
46129;BME280;31860;45.186;5.790;2023-02-24T00:06:09;98654.22;;;13.48;100.00
46129;BME280;31860;45.186;5.790;2023-02-24T00:08:39;98654.22;;;13.48;100.00
46129;BME280;31860;45.186;5.790;2023-02-24T00:11:10;98650.72;;;13.47;100.00
46129;BME280;31860;45.186;5.790;2023-02-24T00:13:36;98650.75;;;13.46;100.00
46129;BME280;31860;45.186;5.790;2023-02-24T00:16:03;98645.50;;;13.46;100.00
46129;BME280;31860;45.186;5.790;2023-02-24T00:18:30;98642.88;;;13.46;100.00
46129;BME280;31860;45.186;5.790;2023-02-24T00:21:07;98649.00;;;13.45;100.00
46129;BME280;31860;45.186;5.790;2023-02-24T00:23:35;98642.06;;;13.44;100.00
46129;BME280;31860;45.186;5.790;2023-02-24T00:26:02;98643.81;;;13.43;100.00
46129;BME280;31860;45.186;5.790;2023-02-24T00:28:28;98650.88;;;13.40;100.00
46129;BME280;31860;45.186;5.790;2023-02-24T00:30:53;98651.78;;;13.37;100.00
46129;BME280;31860;45.186;5.790;2023-02-24T00:33:20;98640.47;;;13.35;100.00
46129;BME280;31860;45.186;5.790;2023-02-24T00:35:48;98631.75;;;13.33;100.00
46129;BME280;31860;45.186;5.790;2023-02-24T00:38:14;98627.44;;;13.32;100.00
46129;BME280;31860;45.186;5.790;2023-02-24T00:40:39;98627.47;;;13.30;100.00
46129;BME280;31860;45.186;5.790;2023-02-24T00:43:10;98623.09;;;13.29;100.00
46129;BME280;31860;45.186;5.790;2023-02-24T00:45:35;98617.00;;;13.29;100.00
46129;BME280;31860;45.186;5.790;2023-02-24T00:48:03;98618.78;;;13.27;100.00
46129;BME280;31860;45.186;5.790;2023-02-24T00:50:29;98622.25;;;13.27;100.00
46129;BME280;31860;45.186;5.790;2023-02-24T00:52:55;98620.59;;;13.25;100.00
46129;BME280;31860;45.186;5.790;2023-02-24T00:55:21;98616.16;;;13.27;100.00
46129;BME280;31860;45.186;5.790;2023-02-24T00:57:48;98614.38;;;13.27;100.00
46129;BME280;31860;45.186;5.790;2023-02-24T01:00:16;98617.88;;;13.28;100.00
46129;BME280;31860;45.186;5.790;2023-02-24T01:02:44;98618.72;;;13.30;100.00
46129;BME280;31860;45.186;5.790;2023-02-24T01:05:11;98617.00;;;13.29;100.00
46129;BME280;31860;45.186;5.790;2023-02-24T01:07:37;98617.03;;;13.26;100.00
46129;BME280;31860;45.186;5.790;2023-02-24T01:10:04;98617.97;;;13.25;100.00
46129;BME280;31860;45.186;5.790;2023-02-24T01:12:35;98613.63;;;13.22;100.00
46129;BME280;31860;45.186;5.790;2023-02-24T01:15:15;98610.16;;;13.20;100.00
46129;BME280;31860;45.186;5.790;2023-02-24T01:17:41;98612.03;;;13.15;100.00
46129;BME280;31860;45.186;5.790;2023-02-24T01:20:07;98612.91;;;13.14;100.00
46129;BME280;31860;45.186;5.790;2023-02-24T01:22:44;98614.69;;;13.12;100.00
46129;BME280;31860;45.186;5.790;2023-02-24T01:25:10;98613.84;;;13.12;100.00
46129;BME280;31860;45.186;5.790;2023-02-24T01:27:35;98610.31;;;13.13;100.00
46129;BME280;31860;45.186;5.790;2023-02-24T01:30:08;98606.88;;;13.11;100.00
46129;BME280;31860;45.186;5.790;2023-02-24T01:32:41;98600.81;;;13.07;100.00
46129;BME280;31860;45.186;5.790;2023-02-24T01:35:07;98606.09;;;13.06;100.00
46129;BME280;31860;45.186;5.790;2023-02-24T01:37:33;98605.22;;;13.05;100.00
46129;BME280;31860;45.186;5.790;2023-02-24T01:39:58;98594.78;;;13.04;100.00
46129;BME280;31860;45.186;5.790;2023-02-24T01:42:24;98598.28;;;13.04;100.00
46129;BME280;31860;45.186;5.790;2023-02-24T01:47:18;98590.47;;;12.98;100.00
46129;BME280;31860;45.186;5.790;2023-02-24T01:49:47;98586.13;;;12.97;100.00
46129;BME280;31860;45.186;5.790;2023-02-24T01:52:17;98589.72;;;12.93;100.00
46129;BME280;31860;45.186;5.790;2023-02-24T01:54:45;98591.50;;;12.90;100.00
46129;BME280;31860;45.186;5.790;2023-02-24T01:57:14;98579.34;;;12.87;100.00
46129;BME280;31860;45.186;5.790;2023-02-24T01:59:43;98582.88;;;12.85;100.00
46129;BME280;31860;45.186;5.790;2023-02-24T02:02:10;98579.41;;;12.83;100.00
46129;BME280;31860;45.186;5.790;2023-02-24T02:04:41;98582.94;;;12.82;100.00
46129;BME280;31860;45.186;5.790;2023-02-24T02:07:11;98575.97;;;12.81;100.00
46129;BME280;31860;45.186;5.790;2023-02-24T02:09:39;98573.41;;;12.78;100.00
46129;BME280;31860;45.186;5.790;2023-02-24T02:12:09;98576.06;;;12.76;100.00
46129;BME280;31860;45.186;5.790;2023-02-24T02:14:37;98576.91;;;12.78;100.00
46129;BME280;31860;45.186;5.790;2023-02-24T02:20:02;98575.09;;;12.80;100.00
46129;BME280;31860;45.186;5.790;2023-02-24T02:26:13;98566.28;;;12.84;100.00
46129;BME280;31860;45.186;5.790;2023-02-24T02:47:19;98544.50;;;12.81;100.00
46129;BME280;31860;45.186;5.790;2023-02-24T02:52:42;98547.34;;;12.70;100.00
46129;BME280;31860;45.186;5.790;2023-02-24T02:55:16;98548.34;;;12.65;100.00
46129;BME280;31860;45.186;5.790;2023-02-24T02:57:48;98539.69;;;12.60;100.00
46129;BME280;31860;45.186;5.790;2023-02-24T03:00:20;98541.53;;;12.55;100.00
46129;BME280;31860;45.186;5.790;2023-02-24T03:02:53;98531.13;;;12.52;100.00
46129;BME280;31860;45.186;5.790;2023-02-24T03:05:24;98528.50;;;12.50;100.00
46129;BME280;31860;45.186;5.790;2023-02-24T03:07:56;98532.94;;;12.48;100.00
46129;BME280;31860;45.186;5.790;2023-02-24T03:10:25;98527.69;;;12.47;100.00
46129;BME280;31860;45.186;5.790;2023-02-24T03:12:54;98527.75;;;12.45;100.00
46129;BME280;31860;45.186;5.790;2023-02-24T03:15:22;98533.88;;;12.44;100.00
46129;BME280;31860;45.186;5.790;2023-02-24T03:17:57;98536.50;;;12.44;100.00
46129;BME280;31860;45.186;5.790;2023-02-24T03:20:32;98537.44;;;12.40;100.00
46129;BME280;31860;45.186;5.790;2023-02-24T03:23:08;98537.50;;;12.35;100.00
46129;BME280;31860;45.186;5.790;2023-02-24T03:25:39;98538.41;;;12.34;100.00
46129;BME280;31860;45.186;5.790;2023-02-24T03:28:31;98536.66;;;12.33;100.00
46129;BME280;31860;45.186;5.790;2023-02-24T03:34:10;98533.22;;;12.31;100.00
46129;BME280;31860;45.186;5.790;2023-02-24T03:36:39;98537.63;;;12.29;100.00
46129;BME280;31860;45.186;5.790;2023-02-24T03:39:05;98534.13;;;12.30;100.00
46129;BME280;31860;45.186;5.790;2023-02-24T03:41:39;98532.38;;;12.31;100.00
46129;BME280;31860;45.186;5.790;2023-02-24T03:44:08;98526.25;;;12.30;100.00
46129;BME280;31860;45.186;5.790;2023-02-24T03:46:35;98520.13;;;12.33;100.00
46129;BME280;31860;45.186;5.790;2023-02-24T03:49:08;98527.97;;;12.31;100.00
46129;BME280;31860;45.186;5.790;2023-02-24T03:51:42;98528.03;;;12.28;100.00
46129;BME280;31860;45.186;5.790;2023-02-24T04:02:22;98536.97;;;12.17;100.00
46129;BME280;31860;45.186;5.790;2023-02-24T04:05:07;98540.59;;;12.10;100.00
46129;BME280;31860;45.186;5.790;2023-02-24T04:07:40;98538.91;;;12.06;100.00
46129;BME280;31860;45.186;5.790;2023-02-24T04:10:18;98552.91;;;12.03;100.00
46129;BME280;31860;45.186;5.790;2023-02-24T04:12:52;98542.47;;;12.02;100.00
46129;BME280;31860;45.186;5.790;2023-02-24T04:15:58;98546.88;;;11.98;100.00
46129;BME280;31860;45.186;5.790;2023-02-24T04:18:28;98546.00;;;11.98;100.00
46129;BME280;31860;45.186;5.790;2023-02-24T04:20:55;98537.28;;;11.97;100.00
46129;BME280;31860;45.186;5.790;2023-02-24T04:23:36;98527.75;;;11.95;100.00
46129;BME280;31860;45.186;5.790;2023-02-24T04:26:04;98533.88;;;11.94;100.00
46129;BME280;31860;45.186;5.790;2023-02-24T04:28:31;98527.81;;;11.90;100.00
46129;BME280;31860;45.186;5.790;2023-02-24T04:31:00;98522.56;;;11.92;100.00
46129;BME280;31860;45.186;5.790;2023-02-24T04:33:30;98523.44;;;11.92;100.00
46129;BME280;31860;45.186;5.790;2023-02-24T04:35:55;98526.03;;;11.92;100.00
46129;BME280;31860;45.186;5.790;2023-02-24T04:38:21;98529.53;;;11.93;100.00
46129;BME280;31860;45.186;5.790;2023-02-24T04:40:47;98521.72;;;11.91;100.00
46129;BME280;31860;45.186;5.790;2023-02-24T04:43:14;98524.34;;;11.90;100.00
46129;BME280;31860;45.186;5.790;2023-02-24T04:45:39;98524.38;;;11.87;100.00
46129;BME280;31860;45.186;5.790;2023-02-24T04:48:05;98523.53;;;11.86;100.00
46129;BME280;31860;45.186;5.790;2023-02-24T04:50:38;98520.94;;;11.85;100.00
46129;BME280;31860;45.186;5.790;2023-02-24T04:53:07;98521.84;;;11.84;100.00
46129;BME280;31860;45.186;5.790;2023-02-24T04:55:45;98524.47;;;11.81;100.00
46129;BME280;31860;45.186;5.790;2023-02-24T04:58:19;98511.47;;;11.78;100.00
46129;BME280;31860;45.186;5.790;2023-02-24T05:00:49;98504.50;;;11.75;100.00
46129;BME280;31860;45.186;5.790;2023-02-24T05:03:17;98501.94;;;11.74;100.00
46129;BME280;31860;45.186;5.790;2023-02-24T05:06:13;98509.84;;;11.69;100.00
46129;BME280;31860;45.186;5.790;2023-02-24T05:08:40;98507.25;;;11.68;100.00
46129;BME280;31860;45.186;5.790;2023-02-24T05:11:05;98503.75;;;11.70;100.00
46129;BME280;31860;45.186;5.790;2023-02-24T05:13:31;98510.69;;;11.71;100.00
46129;BME280;31860;45.186;5.790;2023-02-24T05:16:07;98494.97;;;11.71;100.00
46129;BME280;31860;45.186;5.790;2023-02-24T05:18:33;98501.13;;;11.70;100.00
46129;BME280;31860;45.186;5.790;2023-02-24T05:21:05;98502.88;;;11.70;100.00
46129;BME280;31860;45.186;5.790;2023-02-24T05:23:51;98502.97;;;11.65;100.00
46129;BME280;31860;45.186;5.790;2023-02-24T05:26:18;98495.97;;;11.63;100.00
46129;BME280;31860;45.186;5.790;2023-02-24T05:28:46;98506.44;;;11.63;100.00
46129;BME280;31860;45.186;5.790;2023-02-24T05:31:25;98497.72;;;11.65;100.00
46129;BME280;31860;45.186;5.790;2023-02-24T05:33:52;98494.19;;;11.66;100.00
46129;BME280;31860;45.186;5.790;2023-02-24T05:36:22;98493.25;;;11.72;100.00
46129;BME280;31860;45.186;5.790;2023-02-24T05:38:50;98498.50;;;11.70;100.00
46129;BME280;31860;45.186;5.790;2023-02-24T05:41:23;98498.47;;;11.72;100.00
46129;BME280;31860;45.186;5.790;2023-02-24T05:43:50;98495.00;;;11.73;100.00
46129;BME280;31860;45.186;5.790;2023-02-24T05:46:24;98497.59;;;11.71;100.00
46129;BME280;31860;45.186;5.790;2023-02-24T05:48:54;98491.47;;;11.74;100.00
46129;BME280;31860;45.186;5.790;2023-02-24T05:51:23;98489.66;;;11.77;100.00
46129;BME280;31860;45.186;5.790;2023-02-24T05:53:52;98500.13;;;11.77;100.00
46129;BME280;31860;45.186;5.790;2023-02-24T05:56:21;98497.47;;;11.79;100.00
46129;BME280;31860;45.186;5.790;2023-02-24T05:58:51;98500.09;;;11.79;100.00
46129;BME280;31860;45.186;5.790;2023-02-24T06:01:31;98493.13;;;11.79;100.00
46129;BME280;31860;45.186;5.790;2023-02-24T06:03:59;98501.03;;;11.76;100.00
46129;BME280;31860;45.186;5.790;2023-02-24T06:06:39;98504.50;;;11.75;100.00
46129;BME280;31860;45.186;5.790;2023-02-24T06:09:09;98508.03;;;11.74;100.00
46129;BME280;31860;45.186;5.790;2023-02-24T06:11:42;98508.94;;;11.72;100.00
46129;BME280;31860;45.186;5.790;2023-02-24T06:14:10;98513.28;;;11.71;100.00
46129;BME280;31860;45.186;5.790;2023-02-24T06:16:38;98515.88;;;11.74;100.00
46129;BME280;31860;45.186;5.790;2023-02-24T06:19:05;98518.47;;;11.76;100.00
46129;BME280;31860;45.186;5.790;2023-02-24T06:21:30;98529.81;;;11.76;100.00
46129;BME280;31860;45.186;5.790;2023-02-24T06:23:57;98535.88;;;11.77;100.00
46129;BME280;31860;45.186;5.790;2023-02-24T06:26:24;98533.25;;;11.77;100.00
46129;BME280;31860;45.186;5.790;2023-02-24T06:28:54;98530.75;;;11.72;100.00
46129;BME280;31860;45.186;5.790;2023-02-24T06:31:20;98530.75;;;11.72;100.00
46129;BME280;31860;45.186;5.790;2023-02-24T06:33:46;98534.22;;;11.73;100.00
46129;BME280;31860;45.186;5.790;2023-02-24T06:36:12;98525.53;;;11.71;100.00
46129;BME280;31860;45.186;5.790;2023-02-24T06:38:38;98538.63;;;11.71;100.00
46129;BME280;31860;45.186;5.790;2023-02-24T06:41:05;98547.38;;;11.67;100.00
46129;BME280;31860;45.186;5.790;2023-02-24T06:43:44;98546.53;;;11.63;100.00
46129;BME280;31860;45.186;5.790;2023-02-24T06:46:12;98540.41;;;11.66;100.00
46129;BME280;31860;45.186;5.790;2023-02-24T06:48:38;98542.19;;;11.62;100.00
46129;BME280;31860;45.186;5.790;2023-02-24T06:51:08;98557.00;;;11.62;100.00
46129;BME280;31860;45.186;5.790;2023-02-24T06:53:35;98559.63;;;11.62;100.00
46129;BME280;31860;45.186;5.790;2023-02-24T06:56:08;98557.00;;;11.62;100.00
46129;BME280;31860;45.186;5.790;2023-02-24T06:58:43;98543.09;;;11.58;100.00
46129;BME280;31860;45.186;5.790;2023-02-24T07:01:14;98546.66;;;11.56;100.00
46129;BME280;31860;45.186;5.790;2023-02-24T07:03:40;98544.03;;;11.56;100.00
46129;BME280;31860;45.186;5.790;2023-02-24T07:06:12;98544.91;;;11.55;100.00
46129;BME280;31860;45.186;5.790;2023-02-24T07:08:51;98551.91;;;11.53;100.00
46129;BME280;31860;45.186;5.790;2023-02-24T07:11:17;98538.91;;;11.50;100.00
46129;BME280;31860;45.186;5.790;2023-02-24T07:13:47;98542.41;;;11.47;100.00
46129;BME280;31860;45.186;5.790;2023-02-24T07:16:18;98537.19;;;11.47;100.00
46129;BME280;31860;45.186;5.790;2023-02-24T07:18:44;98540.66;;;11.48;100.00
46129;BME280;31860;45.186;5.790;2023-02-24T07:21:15;98531.91;;;11.48;100.00
46129;BME280;31860;45.186;5.790;2023-02-24T07:23:43;98519.72;;;11.49;100.00
46129;BME280;31860;45.186;5.790;2023-02-24T07:26:14;98519.69;;;11.51;100.00
46129;BME280;31860;45.186;5.790;2023-02-24T07:28:41;98524.88;;;11.52;100.00
46129;BME280;31860;45.186;5.790;2023-02-24T07:31:09;98530.97;;;11.56;100.00
46129;BME280;31860;45.186;5.790;2023-02-24T07:33:39;98536.16;;;11.57;100.00
46129;BME280;31860;45.186;5.790;2023-02-24T07:36:06;98542.19;;;11.62;100.00
46129;BME280;31860;45.186;5.790;2023-02-24T07:38:38;98545.63;;;11.64;100.00
46129;BME280;31860;45.186;5.790;2023-02-24T07:41:04;98562.19;;;11.68;100.00
46129;BME280;31860;45.186;5.790;2023-02-24T07:43:34;98549.91;;;11.71;100.00
46129;BME280;31860;45.186;5.790;2023-02-24T07:46:09;98538.63;;;11.71;100.00
46129;BME280;31860;45.186;5.790;2023-02-24T07:48:36;98535.09;;;11.72;100.00
46129;BME280;31860;45.186;5.790;2023-02-24T07:51:15;98536.84;;;11.73;100.00
46129;BME280;31860;45.186;5.790;2023-02-24T07:53:46;98537.66;;;11.76;100.00
46129;BME280;31860;45.186;5.790;2023-02-24T07:56:13;98538.47;;;11.80;100.00
46129;BME280;31860;45.186;5.790;2023-02-24T07:58:42;98523.56;;;11.85;100.00
46129;BME280;31860;45.186;5.790;2023-02-24T08:01:09;98528.72;;;11.89;100.00
46129;BME280;31860;45.186;5.790;2023-02-24T08:03:43;98534.78;;;11.93;100.00
46129;BME280;31860;45.186;5.790;2023-02-24T08:06:09;98526.84;;;11.96;100.00
46129;BME280;31860;45.186;5.790;2023-02-24T08:08:51;98537.28;;;11.97;100.00
46129;BME280;31860;45.186;5.790;2023-02-24T08:11:25;98527.66;;;12.01;100.00
46129;BME280;31860;45.186;5.790;2023-02-24T08:13:51;98520.56;;;12.07;100.00
46129;BME280;31860;45.186;5.790;2023-02-24T08:16:16;98525.78;;;12.07;100.00
46129;BME280;31860;45.186;5.790;2023-02-24T08:18:42;98518.72;;;12.12;100.00
46129;BME280;31860;45.186;5.790;2023-02-24T08:21:15;98501.97;;;12.22;100.00
46129;BME280;31860;45.186;5.790;2023-02-24T08:23:40;98499.31;;;12.25;100.00
46129;BME280;31860;45.186;5.790;2023-02-24T08:26:09;98497.50;;;12.29;100.00
46129;BME280;31860;45.186;5.790;2023-02-24T08:28:38;98502.59;;;12.35;100.00
46129;BME280;31860;45.186;5.790;2023-02-24T08:31:03;98491.06;;;12.45;100.00
46129;BME280;31860;45.186;5.790;2023-02-24T08:33:29;98490.97;;;12.51;100.00
46129;BME280;31860;45.186;5.790;2023-02-24T08:35:54;98488.22;;;12.57;100.00
46129;BME280;31860;45.186;5.790;2023-02-24T08:38:25;98483.78;;;12.61;100.00
46129;BME280;31860;45.186;5.790;2023-02-24T08:41:04;98482.88;;;12.62;100.00
46129;BME280;31860;45.186;5.790;2023-02-24T08:43:37;98480.22;;;12.65;100.00
46129;BME280;31860;45.186;5.790;2023-02-24T08:51:20;98459.66;;;12.86;100.00
46129;BME280;31860;45.186;5.790;2023-02-24T08:53:50;98457.75;;;12.94;100.00
46129;BME280;31860;45.186;5.790;2023-02-24T08:56:19;98465.41;;;13.06;100.00
46129;BME280;31860;45.186;5.790;2023-02-24T08:58:56;98453.03;;;13.11;100.00
46129;BME280;31860;45.186;5.790;2023-02-24T09:01:27;98450.25;;;13.19;100.00
46129;BME280;31860;45.186;5.790;2023-02-24T09:04:00;98447.41;;;13.28;100.00
46129;BME280;31860;45.186;5.790;2023-02-24T09:09:10;98439.16;;;13.45;100.00
46129;BME280;31860;45.186;5.790;2023-02-24T09:11:47;98435.47;;;13.53;100.00
46129;BME280;31860;45.186;5.790;2023-02-24T09:14:16;98432.69;;;13.58;100.00
46129;BME280;31860;45.186;5.790;2023-02-24T09:16:43;98427.28;;;13.65;100.00
46129;BME280;31860;45.186;5.790;2023-02-24T09:22:10;98431.44;;;13.74;100.00
46129;BME280;31860;45.186;5.790;2023-02-24T09:24:55;98431.44;;;13.74;100.00
46129;BME280;31860;45.186;5.790;2023-02-24T09:27:41;98430.53;;;13.75;100.00
46129;BME280;31860;45.186;5.790;2023-02-24T09:30:08;98420.81;;;13.78;100.00
46129;BME280;31860;45.186;5.790;2023-02-24T09:32:50;98410.22;;;13.83;100.00
46129;BME280;31860;45.186;5.790;2023-02-24T09:35:27;98408.34;;;13.86;100.00
46129;BME280;31860;45.186;5.790;2023-02-24T09:38:02;98402.97;;;13.92;100.00
46129;BME280;31860;45.186;5.790;2023-02-24T09:40:34;98398.44;;;13.97;100.00
46129;BME280;31860;45.186;5.790;2023-02-24T09:43:11;98383.41;;;14.04;100.00
46129;BME280;31860;45.186;5.790;2023-02-24T09:45:48;98380.66;;;14.07;100.00
46129;BME280;31860;45.186;5.790;2023-02-24T09:48:23;98378.81;;;14.10;100.00
46129;BME280;31860;45.186;5.790;2023-02-24T09:50:50;98370.00;;;14.13;100.00
46129;BME280;31860;45.186;5.790;2023-02-24T09:53:28;98366.41;;;14.17;100.00
46129;BME280;31860;45.186;5.790;2023-02-24T09:58:48;98360.13;;;14.22;100.00
46129;BME280;31860;45.186;5.790;2023-02-24T10:06:41;98343.19;;;14.34;100.00
46129;BME280;31860;45.186;5.790;2023-02-24T10:09:23;98342.19;;;14.38;100.00
46129;BME280;31860;45.186;5.790;2023-02-24T10:11:56;98335.94;;;14.42;100.00
46129;BME280;31860;45.186;5.790;2023-02-24T10:14:50;98333.22;;;14.45;100.00
46129;BME280;31860;45.186;5.790;2023-02-24T10:17:18;98329.53;;;14.51;100.00
46129;BME280;31860;45.186;5.790;2023-02-24T10:19:48;98316.31;;;14.54;100.00
46129;BME280;31860;45.186;5.790;2023-02-24T10:31:12;98286.25;;;14.90;100.00
46129;BME280;31860;45.186;5.790;2023-02-24T10:33:56;98285.81;;;15.03;100.00
46129;BME280;31860;45.186;5.790;2023-02-24T10:36:23;98281.88;;;15.16;100.00
46129;BME280;31860;45.186;5.790;2023-02-24T10:42:01;98268.66;;;15.46;97.97
46129;BME280;31860;45.186;5.790;2023-02-24T10:44:41;98267.25;;;15.60;96.23
46129;BME280;31860;45.186;5.790;2023-02-24T10:47:18;98267.66;;;15.73;94.37
46129;BME280;31860;45.186;5.790;2023-02-24T10:49:49;98261.00;;;15.87;92.77
46129;BME280;31860;45.186;5.790;2023-02-24T10:52:35;98254.25;;;16.03;91.01
46129;BME280;31860;45.186;5.790;2023-02-24T10:55:05;98261.66;;;16.17;89.17
46129;BME280;31860;45.186;5.790;2023-02-24T10:57:51;98250.41;;;16.35;87.25
46129;BME280;31860;45.186;5.790;2023-02-24T11:00:27;98246.38;;;16.50;85.52
46129;BME280;31860;45.186;5.790;2023-02-24T11:03:15;98251.81;;;16.67;83.81
46129;BME280;31860;45.186;5.790;2023-02-24T11:05:49;98247.78;;;16.80;77.12
46129;BME280;31860;45.186;5.790;2023-02-24T11:08:35;98237.59;;;16.92;79.98
46129;BME280;31860;45.186;5.790;2023-02-24T11:11:13;98242.25;;;17.08;77.02
46129;BME280;31860;45.186;5.790;2023-02-24T11:13:50;98229.31;;;17.22;76.73
46129;BME280;31860;45.186;5.790;2023-02-24T11:16:43;98219.94;;;17.35;69.58
46129;BME280;31860;45.186;5.790;2023-02-24T11:19:45;98225.66;;;17.46;73.35
46129;BME280;31860;45.186;5.790;2023-02-24T11:22:41;98211.94;;;17.58;69.18
46129;BME280;31860;45.186;5.790;2023-02-24T11:25:21;98209.75;;;17.67;71.17
46129;BME280;31860;45.186;5.790;2023-02-24T11:27:47;98196.78;;;17.81;69.94
46129;BME280;31860;45.186;5.790;2023-02-24T11:30:29;98202.53;;;17.91;67.13
46129;BME280;31860;45.186;5.790;2023-02-24T11:33:22;98189.88;;;17.97;64.28
46129;BME280;31860;45.186;5.790;2023-02-24T11:35:56;98180.03;;;18.01;65.77
46129;BME280;31860;45.186;5.790;2023-02-24T11:38:43;98182.66;;;18.01;61.22
46129;BME280;31860;45.186;5.790;2023-02-24T11:41:25;98173.13;;;17.98;59.58
46129;BME280;31860;45.186;5.790;2023-02-24T11:44:21;98165.31;;;17.95;56.34
46129;BME280;31860;45.186;5.790;2023-02-24T11:46:51;98158.53;;;17.90;58.73
46129;BME280;31860;45.186;5.790;2023-02-24T11:49:29;98153.59;;;17.82;56.71
46129;BME280;31860;45.186;5.790;2023-02-24T11:51:56;98148.56;;;17.76;58.43
46129;BME280;31860;45.186;5.790;2023-02-24T11:54:24;98141.78;;;17.71;58.07
46129;BME280;31860;45.186;5.790;2023-02-24T11:56:55;98142.13;;;17.63;57.22
46129;BME280;31860;45.186;5.790;2023-02-24T12:02:00;98131.34;;;17.49;57.42
46129;BME280;31860;45.186;5.790;2023-02-24T12:04:33;98116.63;;;17.44;57.10
46129;BME280;31860;45.186;5.790;2023-02-24T12:07:20;98119.53;;;17.38;56.05
46129;BME280;31860;45.186;5.790;2023-02-24T12:09:54;98108.31;;;17.33;56.83
46129;BME280;31860;45.186;5.790;2023-02-24T12:12:27;98102.28;;;17.29;57.99
46129;BME280;31860;45.186;5.790;2023-02-24T12:14:58;98090.22;;;17.24;57.65
46129;BME280;31860;45.186;5.790;2023-02-24T12:17:35;98089.50;;;17.20;56.95
46129;BME280;31860;45.186;5.790;2023-02-24T12:20:08;98095.00;;;17.16;57.72
46129;BME280;31860;45.186;5.790;2023-02-24T12:22:46;98088.94;;;17.14;57.54
46129;BME280;31860;45.186;5.790;2023-02-24T12:25:17;98082.88;;;17.12;58.31
46129;BME280;31860;45.186;5.790;2023-02-24T12:36:31;98058.34;;;17.10;58.88
46129;BME280;31860;45.186;5.790;2023-02-24T12:47:11;98037.16;;;17.11;57.17
46129;BME280;31860;45.186;5.790;2023-02-24T12:50:05;98042.34;;;17.13;55.89
46129;BME280;31860;45.186;5.790;2023-02-24T12:52:52;98036.16;;;17.14;55.35
46129;BME280;31860;45.186;5.790;2023-02-24T12:55:24;98020.34;;;17.14;55.98
46129;BME280;31860;45.186;5.790;2023-02-24T12:58:16;98018.47;;;17.16;54.83
46129;BME280;31860;45.186;5.790;2023-02-24T13:00:53;98012.00;;;17.23;54.88
46129;BME280;31860;45.186;5.790;2023-02-24T13:03:47;98012.06;;;17.40;54.19
46129;BME280;31860;45.186;5.790;2023-02-24T13:06:31;98003.25;;;17.59;53.53
46129;BME280;31860;45.186;5.790;2023-02-24T13:11:56;98006.16;;;17.90;51.14
46129;BME280;31860;45.186;5.790;2023-02-24T13:14:29;97992.63;;;17.96;51.26
46129;BME280;31860;45.186;5.790;2023-02-24T13:19:37;97998.34;;;18.06;51.17
46129;BME280;31860;45.186;5.790;2023-02-24T13:22:07;97989.00;;;18.16;51.23
46129;BME280;31860;45.186;5.790;2023-02-24T13:27:28;97975.81;;;18.50;50.43
46129;BME280;31860;45.186;5.790;2023-02-24T13:29:57;97973.34;;;18.64;50.12
46129;BME280;31860;45.186;5.790;2023-02-24T13:32:35;97970.56;;;18.83;48.64
46129;BME280;31860;45.186;5.790;2023-02-24T13:35:03;97961.06;;;18.96;49.42
46129;BME280;31860;45.186;5.790;2023-02-24T13:39:56;97953.09;;;19.29;48.70
46129;BME280;31860;45.186;5.790;2023-02-24T13:42:27;97942.50;;;19.44;47.93
46129;BME280;31860;45.186;5.790;2023-02-24T13:45:16;97946.84;;;19.61;46.43
46129;BME280;31860;45.186;5.790;2023-02-24T13:53:15;97949.19;;;20.12;47.12
46129;BME280;31860;45.186;5.790;2023-02-24T14:01:18;97926.03;;;20.45;46.00
46129;BME280;31860;45.186;5.790;2023-02-24T14:04:15;97916.94;;;20.49;44.45
46129;BME280;31860;45.186;5.790;2023-02-24T14:06:52;97910.09;;;20.45;43.45
46129;BME280;31860;45.186;5.790;2023-02-24T14:09:43;97903.28;;;20.41;40.39
46129;BME280;31860;45.186;5.790;2023-02-24T14:12:31;97902.50;;;20.39;39.76
46129;BME280;31860;45.186;5.790;2023-02-24T14:14:59;97902.59;;;20.38;42.77
46129;BME280;31860;45.186;5.790;2023-02-24T14:17:31;97898.44;;;20.34;40.96
46129;BME280;31860;45.186;5.790;2023-02-24T14:22:30;97906.66;;;20.29;41.58
46129;BME280;31860;45.186;5.790;2023-02-24T14:25:04;97920.19;;;20.25;39.27
46129;BME280;31860;45.186;5.790;2023-02-24T14:27:30;97911.53;;;20.21;40.89
46129;BME280;31860;45.186;5.790;2023-02-24T14:29:55;97908.28;;;20.16;40.77
46129;BME280;31860;45.186;5.790;2023-02-24T14:32:23;97914.81;;;20.11;39.86
46129;BME280;31860;45.186;5.790;2023-02-24T14:34:49;97915.16;;;20.05;40.28
46129;BME280;31860;45.186;5.790;2023-02-24T14:37:15;97927.16;;;19.96;40.46
46129;BME280;31860;45.186;5.790;2023-02-24T14:39:56;97921.63;;;19.85;37.99
46129;BME280;31860;45.186;5.790;2023-02-24T14:42:21;97912.41;;;19.76;39.95
46129;BME280;31860;45.186;5.790;2023-02-24T14:47:19;97922.19;;;19.60;39.83
46129;BME280;31860;45.186;5.790;2023-02-24T14:50:18;97907.66;;;19.52;36.97
46129;BME280;31860;45.186;5.790;2023-02-24T14:55:30;97895.44;;;19.34;37.85
46129;BME280;31860;45.186;5.790;2023-02-24T15:00:29;97908.56;;;19.20;39.23
46129;BME280;31860;45.186;5.790;2023-02-24T15:03:00;97915.13;;;19.13;39.68
46129;BME280;31860;45.186;5.790;2023-02-24T15:05:28;97905.81;;;19.06;39.72
46129;BME280;31860;45.186;5.790;2023-02-24T15:07:54;97912.31;;;19.00;39.82
46129;BME280;31860;45.186;5.790;2023-02-24T15:10:25;97910.00;;;18.94;38.64
46129;BME280;31860;45.186;5.790;2023-02-24T15:12:55;97915.59;;;18.88;38.90
46129;BME280;31860;45.186;5.790;2023-02-24T15:15:24;97906.22;;;18.82;39.13
46129;BME280;31860;45.186;5.790;2023-02-24T15:17:56;97905.63;;;18.77;39.31
46129;BME280;31860;45.186;5.790;2023-02-24T15:20:42;97901.50;;;18.72;37.69
46129;BME280;31860;45.186;5.790;2023-02-24T15:23:43;97904.38;;;18.67;37.47